Time;durP1;ratioP1;P1;durP2;ratioP2;P2;SDS_P1;SDS_P2;PMS_P1;PMS_P2;Temp;Humidity;BMP_temperature;BMP_pressure;BME280_temperature;BME280_humidity;BME280_pressure;Samples;Min_cycle;Max_cycle;Signal;HPM_P1;HPM_P2
2021/12/29 00:00:54;;;;;;;4.05;2.85;;;;;;;;;;5135930;27;20074;-71
2021/12/29 00:03:21;;;;;;;5.28;3.10;;;;;;;;;;5136157;27;20087;-72
2021/12/29 00:05:47;;;;;;;12.70;4.38;;;;;;;;;;5136321;27;20052;-71
2021/12/29 00:08:13;;;;;;;6.80;3.67;;;;;;;;;;5136153;27;20058;-71
2021/12/29 00:10:39;;;;;;;13.95;5.00;;;;;;;;;;5135650;27;20142;-71
2021/12/29 00:13:06;;;;;;;8.15;4.45;;;;;;;;;;5136080;27;20052;-72
2021/12/29 00:15:33;;;;;;;8.93;4.53;;;;;;;;;;5134934;27;20058;-72
2021/12/29 00:17:59;;;;;;;15.98;5.68;;;;;;;;;;5136123;27;20044;-71
2021/12/29 00:20:28;;;;;;;10.70;6.32;;;;;;;;;;5135865;27;20423;-71
2021/12/29 00:22:56;;;;;;;13.02;6.75;;;;;;;;;;5136222;27;20058;-71
2021/12/29 00:25:22;;;;;;;15.40;7.18;;;;;;;;;;5137941;27;20047;-71
2021/12/29 00:27:49;;;;;;;17.85;7.57;;;;;;;;;;5138263;27;20062;-71
2021/12/29 00:30:15;;;;;;;21.92;8.82;;;;;;;;;;5135247;27;20055;-71
2021/12/29 00:32:41;;;;;;;20.98;9.65;;;;;;;;;;5135751;27;20081;-71
2021/12/29 00:35:11;;;;;;;25.73;10.48;;;;;;;;;;5135746;27;20503;-71
2021/12/29 00:37:39;;;;;;;18.23;8.65;;;;;;;;;;5137538;27;20055;-71
2021/12/29 00:40:05;;;;;;;22.60;10.02;;;;;;;;;;5135997;27;20058;-71
2021/12/29 00:42:32;;;;;;;25.05;10.23;;;;;;;;;;5135173;27;20052;-71
2021/12/29 00:44:58;;;;;;;22.73;9.82;;;;;;;;;;5134791;27;20056;-71
2021/12/29 00:47:29;;;;;;;23.85;10.40;;;;;;;;;;5140855;27;20062;-71
2021/12/29 00:49:55;;;;;;;22.65;10.90;;;;;;;;;;5136424;27;20060;-71
2021/12/29 00:52:22;;;;;;;23.50;10.02;;;;;;;;;;5140124;27;20139;-71
2021/12/29 00:54:49;;;;;;;17.90;9.48;;;;;;;;;;5135651;27;20050;-71
2021/12/29 00:57:15;;;;;;;22.83;9.68;;;;;;;;;;5135024;27;20055;-71
2021/12/29 00:59:41;;;;;;;16.40;8.80;;;;;;;;;;5134767;27;20172;-71
2021/12/29 01:02:07;;;;;;;25.52;8.75;;;;;;;;;;5134456;27;20507;-71
2021/12/29 01:04:34;;;;;;;15.73;7.85;;;;;;;;;;5134748;27;20555;-71
2021/12/29 01:07:00;;;;;;;16.80;8.80;;;;;;;;;;5135121;27;20487;-71
2021/12/29 01:09:27;;;;;;;32.03;9.82;;;;;;;;;;5149213;27;20071;-71
2021/12/29 01:11:57;;;;;;;25.00;10.23;;;;;;;;;;5144367;27;20044;-71
2021/12/29 01:14:25;;;;;;;22.90;9.13;;;;;;;;;;5133954;27;20143;-71
2021/12/29 01:16:52;;;;;;;21.35;9.73;;;;;;;;;;5134926;27;20047;-71
2021/12/29 01:19:22;;;;;;;23.67;9.90;;;;;;;;;;5134830;27;20055;-72
2021/12/29 01:21:51;;;;;;;26.88;10.23;;;;;;;;;;5132405;27;20052;-70
2021/12/29 01:24:20;;;;;;;22.15;9.90;;;;;;;;;;5147224;27;20533;-71
2021/12/29 01:26:46;;;;;;;24.52;9.75;;;;;;;;;;5142328;27;20054;-71
2021/12/29 01:29:13;;;;;;;21.90;9.13;;;;;;;;;;5134572;27;20074;-71
2021/12/29 01:31:40;;;;;;;21.50;8.85;;;;;;;;;;5134668;27;20112;-71
2021/12/29 01:34:07;;;;;;;25.02;9.48;;;;;;;;;;5135090;27;20058;-71
2021/12/29 01:36:34;;;;;;;27.67;9.38;;;;;;;;;;5134716;27;20082;-70
2021/12/29 01:39:02;;;;;;;26.20;10.85;;;;;;;;;;5122593;27;20089;-71
2021/12/29 01:41:28;;;;;;;19.98;9.05;;;;;;;;;;5134646;27;20058;-71
2021/12/29 01:43:55;;;;;;;19.20;8.98;;;;;;;;;;5134339;27;20059;-71
2021/12/29 01:46:21;;;;;;;26.00;9.88;;;;;;;;;;5134451;27;20117;-71
2021/12/29 01:48:48;;;;;;;24.30;9.90;;;;;;;;;;5134762;27;20077;-71
2021/12/29 01:51:17;;;;;;;18.98;9.18;;;;;;;;;;5134371;27;20048;-71
2021/12/29 01:54:00;;;;;;;21.52;8.70;;;;;;;;;;5134949;27;20142;-71
2021/12/29 01:56:28;;;;;;;22.40;7.25;;;;;;;;;;5134312;27;20047;-71
2021/12/29 01:58:54;;;;;;;20.35;7.90;;;;;;;;;;5153160;27;20058;-71
2021/12/29 02:01:20;;;;;;;19.48;8.02;;;;;;;;;;5144515;27;20062;-71
2021/12/29 02:03:47;;;;;;;20.17;9.10;;;;;;;;;;5135604;27;20051;-71
2021/12/29 02:06:13;;;;;;;19.95;8.63;;;;;;;;;;5132124;27;20051;-71
2021/12/29 02:08:39;;;;;;;20.33;8.20;;;;;;;;;;5133890;27;20047;-71
2021/12/29 02:11:07;;;;;;;20.48;9.43;;;;;;;;;;5134281;27;20048;-71
2021/12/29 02:13:34;;;;;;;25.90;10.75;;;;;;;;;;5133736;27;20056;-71
2021/12/29 02:16:00;;;;;;;30.05;10.52;;;;;;;;;;5134286;27;20484;-70
2021/12/29 02:18:27;;;;;;;25.70;10.35;;;;;;;;;;5135726;27;20124;-71
2021/12/29 02:20:54;;;;;;;27.05;11.20;;;;;;;;;;5135297;27;20502;-71
2021/12/29 02:24:05;;;;;;;25.40;11.13;;;;;;;;;;5137670;27;20047;-71
2021/12/29 02:26:13;;;;;;;29.42;10.63;;;;;;;;;;5140433;27;20051;-71
2021/12/29 02:28:41;;;;;;;36.53;11.85;;;;;;;;;;5133932;27;20139;-71
2021/12/29 02:31:08;;;;;;;32.17;12.32;;;;;;;;;;5133974;27;20047;-72
2021/12/29 02:33:35;;;;;;;31.88;13.13;;;;;;;;;;5133874;27;20055;-71
2021/12/29 02:36:03;;;;;;;30.10;12.10;;;;;;;;;;5139057;27;20491;-71
2021/12/29 02:38:34;;;;;;;36.67;12.80;;;;;;;;;;5133767;27;20044;-72
2021/12/29 02:41:02;;;;;;;32.88;12.43;;;;;;;;;;5133004;27;20499;-71
2021/12/29 02:43:31;;;;;;;33.08;12.43;;;;;;;;;;5133402;27;20047;-71
2021/12/29 02:45:58;;;;;;;38.70;14.27;;;;;;;;;;5133739;27;20051;-71
2021/12/29 02:48:26;;;;;;;36.58;13.95;;;;;;;;;;5133626;27;20064;-71
2021/12/29 02:50:55;;;;;;;35.72;13.43;;;;;;;;;;5133680;27;20507;-71
2021/12/29 02:53:24;;;;;;;27.83;12.40;;;;;;;;;;5133547;27;20062;-72
2021/12/29 02:55:51;;;;;;;35.50;13.43;;;;;;;;;;5133554;27;20048;-72
2021/12/29 02:58:17;;;;;;;33.60;12.52;;;;;;;;;;5133754;27;20495;-72
2021/12/29 03:00:43;;;;;;;32.90;12.80;;;;;;;;;;5133774;27;20513;-71
2021/12/29 03:03:17;;;;;;;35.03;12.93;;;;;;;;;;5131122;27;20064;-70
2021/12/29 03:05:44;;;;;;;40.50;13.77;;;;;;;;;;5131357;27;20060;-71
2021/12/29 03:08:12;;;;;;;37.75;12.77;;;;;;;;;;5131542;27;20467;-69
2021/12/29 03:10:39;;;;;;;38.47;12.70;;;;;;;;;;5132837;27;20055;-71
2021/12/29 03:13:06;;;;;;;34.28;13.02;;;;;;;;;;5143621;27;20051;-71
2021/12/29 03:15:33;;;;;;;33.05;13.93;;;;;;;;;;5135517;27;20047;-71
2021/12/29 03:17:59;;;;;;;36.05;13.50;;;;;;;;;;5132695;27;20043;-71
2021/12/29 03:20:26;;;;;;;40.33;12.50;;;;;;;;;;5133180;27;20078;-71
2021/12/29 03:22:53;;;;;;;38.92;12.82;;;;;;;;;;5133990;27;20056;-71
2021/12/29 03:25:19;;;;;;;36.35;12.52;;;;;;;;;;5133429;27;20052;-71
2021/12/29 03:27:45;;;;;;;39.00;13.60;;;;;;;;;;5136280;27;20056;-72
2021/12/29 03:30:12;;;;;;;38.55;12.90;;;;;;;;;;5123132;27;20503;-71
2021/12/29 03:32:43;;;;;;;39.17;13.65;;;;;;;;;;5145432;27;20518;-70
2021/12/29 03:35:10;;;;;;;42.78;11.25;;;;;;;;;;5116703;27;20048;-71
2021/12/29 03:37:37;;;;;;;43.85;11.02;;;;;;;;;;5136312;27;20047;-71
2021/12/29 03:40:04;;;;;;;36.20;10.02;;;;;;;;;;5136222;27;20056;-71
2021/12/29 03:42:31;;;;;;;27.08;7.72;;;;;;;;;;5136307;27;20058;-71
2021/12/29 03:44:58;;;;;;;26.95;8.60;;;;;;;;;;5136697;27;20056;-70
2021/12/29 03:47:24;;;;;;;25.92;8.23;;;;;;;;;;5136516;27;20051;-71
2021/12/29 03:49:50;;;;;;;27.10;6.72;;;;;;;;;;5135872;27;20054;-71
2021/12/29 03:52:17;;;;;;;31.65;6.88;;;;;;;;;;5136336;27;20052;-71
2021/12/29 03:54:44;;;;;;;28.67;6.63;;;;;;;;;;5136335;27;20134;-71
2021/12/29 03:57:10;;;;;;;22.10;5.35;;;;;;;;;;5136366;27;20054;-71
2021/12/29 03:59:37;;;;;;;24.48;5.55;;;;;;;;;;5136510;27;20062;-71
2021/12/29 04:02:03;;;;;;;25.98;5.78;;;;;;;;;;5130096;27;20059;-70
2021/12/29 04:04:30;;;;;;;26.50;6.28;;;;;;;;;;5136263;27;20040;-71
2021/12/29 04:06:56;;;;;;;23.60;5.53;;;;;;;;;;5135972;27;20055;-71
2021/12/29 04:09:22;;;;;;;15.13;4.80;;;;;;;;;;5135425;27;20499;-71
2021/12/29 04:11:50;;;;;;;32.58;6.13;;;;;;;;;;5136151;27;20047;-71
2021/12/29 04:14:19;;;;;;;31.50;5.40;;;;;;;;;;5136118;27;20052;-71
2021/12/29 04:16:46;;;;;;;18.77;5.80;;;;;;;;;;5135558;27;20533;-71
2021/12/29 04:19:29;;;;;;;15.23;4.70;;;;;;;;;;5135754;27;20502;-71
2021/12/29 04:21:57;;;;;;;19.75;5.00;;;;;;;;;;5135726;27;20051;-70
2021/12/29 04:24:23;;;;;;;16.67;5.35;;;;;;;;;;5135588;27;20060;-71
2021/12/29 04:26:50;;;;;;;15.90;5.90;;;;;;;;;;5135875;27;20067;-71
2021/12/29 04:29:16;;;;;;;19.85;5.93;;;;;;;;;;5136031;27;20396;-71
2021/12/29 04:31:43;;;;;;;14.32;6.05;;;;;;;;;;5135241;27;20067;-71
2021/12/29 04:34:10;;;;;;;17.73;6.05;;;;;;;;;;5115218;27;20078;-70
2021/12/29 04:36:36;;;;;;;15.27;6.80;;;;;;;;;;5133126;27;20094;-70
2021/12/29 04:39:03;;;;;;;16.20;6.55;;;;;;;;;;5135697;27;20053;-71
2021/12/29 04:41:30;;;;;;;18.10;6.32;;;;;;;;;;5135228;27;20062;-71
2021/12/29 04:43:56;;;;;;;19.02;6.15;;;;;;;;;;5135168;27;20119;-71
2021/12/29 04:46:35;;;;;;;14.15;6.47;;;;;;;;;;5138558;27;20047;-71
2021/12/29 04:49:02;;;;;;;13.77;5.70;;;;;;;;;;5129463;27;20055;-71
2021/12/29 04:51:35;;;;;;;17.45;6.72;;;;;;;;;;5135639;27;20503;-71
2021/12/29 04:54:05;;;;;;;11.18;5.65;;;;;;;;;;5135137;27;20067;-71
2021/12/29 04:56:32;;;;;;;13.38;5.65;;;;;;;;;;5134253;27;20052;-71
2021/12/29 04:58:58;;;;;;;13.52;6.93;;;;;;;;;;5152924;27;20498;-71
2021/12/29 05:01:24;;;;;;;17.95;5.70;;;;;;;;;;5136661;27;20044;-70
2021/12/29 05:03:52;;;;;;;9.65;4.55;;;;;;;;;;5134994;27;20047;-70
2021/12/29 05:08:51;;;;;;;6.38;3.63;;;;;;;;;;5119643;27;20491;-71
2021/12/29 05:11:17;;;;;;;9.27;4.18;;;;;;;;;;5135163;27;20505;-71
2021/12/29 05:13:44;;;;;;;10.32;4.75;;;;;;;;;;5135287;27;20124;-70
2021/12/29 05:16:10;;;;;;;13.55;4.80;;;;;;;;;;5132541;27;20431;-69
2021/12/29 05:18:37;;;;;;;8.45;4.88;;;;;;;;;;5135394;27;20521;-71
2021/12/29 05:21:05;;;;;;;11.75;5.03;;;;;;;;;;5134879;27;20166;-71
2021/12/29 05:23:32;;;;;;;12.05;4.85;;;;;;;;;;5116798;27;20062;-70
2021/12/29 05:25:58;;;;;;;9.43;4.65;;;;;;;;;;5134718;27;20047;-71
2021/12/29 05:28:24;;;;;;;10.73;4.63;;;;;;;;;;5134869;27;20047;-71
2021/12/29 05:30:52;;;;;;;13.88;5.20;;;;;;;;;;5145164;27;20083;-71
2021/12/29 05:33:18;;;;;;;6.85;3.92;;;;;;;;;;5136930;27;20054;-71
2021/12/29 05:35:44;;;;;;;10.98;4.43;;;;;;;;;;5138770;27;20051;-71
2021/12/29 05:38:11;;;;;;;10.20;3.42;;;;;;;;;;5134905;27;20062;-71
2021/12/29 05:40:37;;;;;;;7.85;2.90;;;;;;;;;;5136409;27;20058;-70
2021/12/29 05:43:04;;;;;;;8.02;3.28;;;;;;;;;;5135361;27;20132;-71
2021/12/29 05:45:31;;;;;;;10.55;3.30;;;;;;;;;;5150675;27;20051;-71
2021/12/29 05:47:57;;;;;;;7.43;3.13;;;;;;;;;;5134682;27;20052;-71
2021/12/29 05:50:25;;;;;;;8.43;3.03;;;;;;;;;;5133697;27;20473;-71
2021/12/29 05:52:52;;;;;;;9.75;3.45;;;;;;;;;;5134966;27;20060;-71
2021/12/29 05:55:18;;;;;;;6.07;3.47;;;;;;;;;;5141452;27;20054;-71
2021/12/29 05:57:45;;;;;;;8.55;3.72;;;;;;;;;;5137744;27;20047;-70
2021/12/29 06:00:13;;;;;;;11.00;4.10;;;;;;;;;;5132636;27;20058;-70
2021/12/29 06:02:39;;;;;;;11.40;4.05;;;;;;;;;;5130257;27;20676;-71
2021/12/29 06:05:06;;;;;;;16.13;4.88;;;;;;;;;;5134043;27;20109;-72
2021/12/29 06:07:33;;;;;;;14.27;5.55;;;;;;;;;;5136084;27;20051;-72
2021/12/29 06:10:00;;;;;;;20.50;5.80;;;;;;;;;;5138294;27;20085;-72
2021/12/29 06:12:26;;;;;;;18.00;6.10;;;;;;;;;;5134758;27;20548;-72
2021/12/29 06:14:52;;;;;;;24.08;7.15;;;;;;;;;;5134831;27;20055;-72
2021/12/29 06:17:19;;;;;;;20.05;6.72;;;;;;;;;;5134444;27;20055;-72
2021/12/29 06:19:45;;;;;;;18.73;7.03;;;;;;;;;;5137134;27;20058;-71
2021/12/29 06:22:11;;;;;;;21.35;7.25;;;;;;;;;;5130285;27;20051;-70
2021/12/29 06:24:38;;;;;;;23.98;7.30;;;;;;;;;;5132401;27;20051;-71
2021/12/29 06:27:05;;;;;;;29.85;6.82;;;;;;;;;;5135187;27;20062;-71
2021/12/29 06:29:31;;;;;;;24.85;5.35;;;;;;;;;;5143438;27;20051;-71
2021/12/29 06:31:58;;;;;;;21.25;6.78;;;;;;;;;;5140495;27;20059;-72
2021/12/29 06:34:24;;;;;;;32.88;5.80;;;;;;;;;;5134061;27;20052;-71
2021/12/29 06:36:50;;;;;;;22.80;6.93;;;;;;;;;;5137071;27;20245;-71
2021/12/29 06:39:16;;;;;;;23.83;6.70;;;;;;;;;;5140656;27;20055;-71
2021/12/29 06:41:44;;;;;;;26.02;6.00;;;;;;;;;;5135988;27;20503;-71
2021/12/29 06:44:11;;;;;;;22.00;6.20;;;;;;;;;;5133394;27;20048;-71
2021/12/29 06:46:37;;;;;;;16.60;4.90;;;;;;;;;;5133297;27;20063;-70
2021/12/29 06:49:03;;;;;;;34.38;6.05;;;;;;;;;;5134984;27;20055;-74
2021/12/29 06:51:30;;;;;;;27.60;6.10;;;;;;;;;;5146938;27;20057;-73
2021/12/29 06:53:56;;;;;;;26.10;5.82;;;;;;;;;;5154865;27;20051;-74
2021/12/29 06:56:22;;;;;;;26.42;7.05;;;;;;;;;;5141007;27;20044;-73
2021/12/29 06:58:49;;;;;;;36.92;6.70;;;;;;;;;;5143173;27;20051;-73
2021/12/29 07:01:16;;;;;;;24.23;6.00;;;;;;;;;;5125897;27;20054;-73
2021/12/29 07:03:43;;;;;;;19.23;5.95;;;;;;;;;;5149197;27;20077;-73
2021/12/29 07:06:09;;;;;;;14.02;5.97;;;;;;;;;;5148061;27;20063;-73
2021/12/29 07:08:40;;;;;;;43.15;6.13;;;;;;;;;;5137447;27;20058;-73
2021/12/29 07:11:06;;;;;;;26.88;6.07;;;;;;;;;;5141143;27;20062;-74
2021/12/29 07:13:33;;;;;;;25.50;6.18;;;;;;;;;;5138591;27;20134;-73
2021/12/29 07:15:59;;;;;;;25.67;5.97;;;;;;;;;;5140977;27;20053;-74
2021/12/29 07:18:25;;;;;;;28.45;8.50;;;;;;;;;;5145020;27;20057;-73
2021/12/29 07:20:52;;;;;;;23.90;8.93;;;;;;;;;;5145575;27;20060;-74
2021/12/29 07:23:18;;;;;;;31.33;8.48;;;;;;;;;;5136908;27;20052;-72
2021/12/29 07:25:44;;;;;;;25.98;10.00;;;;;;;;;;5142189;27;20063;-70
2021/12/29 07:28:10;;;;;;;27.27;8.20;;;;;;;;;;5136999;27;20047;-73
2021/12/29 07:30:37;;;;;;;42.13;10.40;;;;;;;;;;5136600;27;20051;-73
2021/12/29 07:33:03;;;;;;;34.47;8.98;;;;;;;;;;5146759;27;20055;-73
2021/12/29 07:35:29;;;;;;;25.15;8.73;;;;;;;;;;5140761;27;20052;-73
2021/12/29 07:37:56;;;;;;;32.00;9.25;;;;;;;;;;5136513;27;20433;-72
2021/12/29 07:40:22;;;;;;;27.25;7.95;;;;;;;;;;5138118;27;20427;-73
2021/12/29 07:42:48;;;;;;;29.67;8.18;;;;;;;;;;5137242;27;20040;-73
2021/12/29 07:45:15;;;;;;;35.03;9.77;;;;;;;;;;5136783;27;20425;-73
2021/12/29 07:47:47;;;;;;;22.45;8.27;;;;;;;;;;5136629;27;20081;-74
2021/12/29 07:50:17;;;;;;;21.55;8.27;;;;;;;;;;5138699;27;20069;-74
2021/12/29 07:52:59;;;;;;;;;;;;;;;;;;5121212;27;20101;-74
2021/12/29 07:55:25;;;;;;;24.33;8.18;;;;;;;;;;5117490;27;44217;-74
2021/12/29 07:57:51;;;;;;;29.40;8.38;;;;;;;;;;5136888;27;20048;-74
2021/12/29 08:00:18;;;;;;;24.40;9.25;;;;;;;;;;5135774;27;20048;-73
2021/12/29 08:02:44;;;;;;;25.02;8.88;;;;;;;;;;5135777;27;20063;-73
2021/12/29 08:05:12;;;;;;;19.67;8.30;;;;;;;;;;5136143;27;20055;-74
2021/12/29 08:07:45;;;;;;;26.35;8.82;;;;;;;;;;5135742;27;20085;-74
2021/12/29 08:10:11;;;;;;;20.67;8.05;;;;;;;;;;5135332;27;20054;-74
2021/12/29 08:12:38;;;;;;;22.77;7.80;;;;;;;;;;5135357;27;20052;-74
2021/12/29 08:15:04;;;;;;;20.40;8.25;;;;;;;;;;5135345;27;20510;-75
2021/12/29 08:17:32;;;;;;;25.70;8.63;;;;;;;;;;5135533;27;20510;-74
2021/12/29 08:19:59;;;;;;;22.05;8.80;;;;;;;;;;5136089;27;20090;-74
2021/12/29 08:22:25;;;;;;;27.70;7.80;;;;;;;;;;5134006;27;20040;-74
2021/12/29 08:24:52;;;;;;;26.25;9.98;;;;;;;;;;5135662;27;20052;-75
2021/12/29 08:27:18;;;;;;;25.92;8.70;;;;;;;;;;5136037;27;20054;-76
2021/12/29 08:29:44;;;;;;;23.27;8.70;;;;;;;;;;5135422;27;20047;-76
2021/12/29 08:32:11;;;;;;;19.35;8.20;;;;;;;;;;5133336;27;20098;-72
2021/12/29 08:34:37;;;;;;;16.92;8.27;;;;;;;;;;5134116;27;20543;-76
2021/12/29 08:37:03;;;;;;;16.08;8.30;;;;;;;;;;5135725;27;20064;-74
2021/12/29 08:39:29;;;;;;;20.13;8.43;;;;;;;;;;5135977;27;20062;-73
2021/12/29 08:41:56;;;;;;;34.72;9.30;;;;;;;;;;5136240;27;20051;-74
2021/12/29 08:44:22;;;;;;;22.55;8.65;;;;;;;;;;5141864;27;20505;-73
2021/12/29 08:46:48;;;;;;;20.65;9.30;;;;;;;;;;5135212;27;20059;-74
2021/12/29 08:49:15;;;;;;;23.42;8.95;;;;;;;;;;5134999;27;20052;-73
2021/12/29 08:51:42;;;;;;;20.42;8.40;;;;;;;;;;5132261;27;20051;-71
2021/12/29 08:54:08;;;;;;;21.88;10.30;;;;;;;;;;5132458;27;20048;-72
2021/12/29 08:56:35;;;;;;;20.95;7.88;;;;;;;;;;5142382;27;20055;-71
2021/12/29 08:59:01;;;;;;;20.20;8.35;;;;;;;;;;5135133;27;20088;-71
2021/12/29 09:01:28;;;;;;;16.65;8.20;;;;;;;;;;5134427;27;20508;-73
2021/12/29 09:03:54;;;;;;;17.40;7.97;;;;;;;;;;5124112;27;20483;-71
2021/12/29 09:06:22;;;;;;;18.80;8.52;;;;;;;;;;5135290;27;20051;-71
2021/12/29 09:08:48;;;;;;;26.38;8.60;;;;;;;;;;5135806;27;20047;-75
2021/12/29 09:11:14;;;;;;;20.80;8.70;;;;;;;;;;5155554;27;20051;-70
2021/12/29 09:13:41;;;;;;;19.88;8.13;;;;;;;;;;5156011;27;20051;-72
2021/12/29 09:16:07;;;;;;;21.23;7.93;;;;;;;;;;5156052;27;20089;-72
2021/12/29 09:18:34;;;;;;;15.05;8.30;;;;;;;;;;5134796;27;20051;-70
2021/12/29 09:21:06;;;;;;;17.35;8.35;;;;;;;;;;5139012;27;20130;-70
2021/12/29 09:23:33;;;;;;;12.07;8.20;;;;;;;;;;5126420;27;20048;-71
2021/12/29 09:26:00;;;;;;;14.55;7.88;;;;;;;;;;5134590;27;20051;-71
2021/12/29 09:28:26;;;;;;;14.38;7.47;;;;;;;;;;5134939;27;20077;-70
2021/12/29 09:30:53;;;;;;;16.40;7.35;;;;;;;;;;5134975;27;20074;-73
2021/12/29 09:33:20;;;;;;;15.48;7.05;;;;;;;;;;5134696;27;20051;-72
2021/12/29 09:35:47;;;;;;;15.35;7.78;;;;;;;;;;5134803;27;20052;-73
2021/12/29 09:38:14;;;;;;;13.43;7.25;;;;;;;;;;5134967;27;20052;-75
2021/12/29 09:40:41;;;;;;;13.15;6.47;;;;;;;;;;5135098;27;20122;-73
2021/12/29 09:43:08;;;;;;;15.85;7.60;;;;;;;;;;5134174;27;20131;-72
2021/12/29 09:45:35;;;;;;;13.85;6.97;;;;;;;;;;5134602;27;20055;-73
2021/12/29 09:48:01;;;;;;;21.00;7.90;;;;;;;;;;5134157;27;20139;-75
2021/12/29 09:50:28;;;;;;;18.40;7.40;;;;;;;;;;5139460;27;20503;-72
2021/12/29 09:52:55;;;;;;;11.32;6.15;;;;;;;;;;5135530;27;20072;-71
2021/12/29 09:55:22;;;;;;;16.17;6.28;;;;;;;;;;5133389;27;20056;-71
2021/12/29 09:57:50;;;;;;;13.40;6.97;;;;;;;;;;5141555;27;20052;-71
2021/12/29 10:00:28;;;;;;;15.38;7.15;;;;;;;;;;5134832;27;20058;-74
2021/12/29 10:02:56;;;;;;;15.35;7.72;;;;;;;;;;5133594;27;20529;-73
2021/12/29 10:05:24;;;;;;;15.20;7.20;;;;;;;;;;5134377;27;20052;-74
2021/12/29 10:07:57;;;;;;;18.25;9.50;;;;;;;;;;5115365;27;20044;-74
2021/12/29 10:10:23;;;;;;;14.75;6.90;;;;;;;;;;5134162;27;20052;-75
2021/12/29 10:12:57;;;;;;;15.50;8.38;;;;;;;;;;5133532;27;20051;-74
2021/12/29 10:15:37;;;;;;;14.27;7.63;;;;;;;;;;5133593;27;20415;-73
2021/12/29 10:18:08;;;;;;;10.50;7.70;;;;;;;;;;5133409;27;20047;-74
2021/12/29 10:20:45;;;;;;;18.65;7.97;;;;;;;;;;5134426;27;20058;-74
2021/12/29 10:23:15;;;;;;;13.93;7.57;;;;;;;;;;5133766;27;20058;-74
2021/12/29 10:25:41;;;;;;;11.98;8.23;;;;;;;;;;5122052;27;20056;-74
2021/12/29 10:28:17;;;;;;;15.73;7.93;;;;;;;;;;5095302;28;20058;-73
2021/12/29 10:30:43;;;;;;;;;;;;;;;;;;5133518;27;20439;-74
2021/12/29 10:33:09;;;;;;;;;;;;;;;;;;5133442;27;46507;-73
2021/12/29 10:35:36;;;;;;;20.35;7.85;;;;;;;;;;5134911;27;46877;-73
2021/12/29 10:38:28;;;;;;;15.43;8.40;;;;;;;;;;5137471;27;20062;-73
2021/12/29 10:41:02;;;;;;;21.55;8.70;;;;;;;;;;5133616;27;20134;-73
2021/12/29 10:43:28;;;;;;;20.50;8.48;;;;;;;;;;5119283;27;20052;-73
2021/12/29 10:45:54;;;;;;;15.93;8.50;;;;;;;;;;5133757;27;20138;-74
2021/12/29 10:48:22;;;;;;;12.90;8.27;;;;;;;;;;5137379;27;20048;-72
2021/12/29 10:50:56;;;;;;;14.02;9.20;;;;;;;;;;5136350;27;20074;-73
2021/12/29 10:53:23;;;;;;;19.13;8.70;;;;;;;;;;5142062;27;20051;-74
2021/12/29 10:55:49;;;;;;;11.50;8.38;;;;;;;;;;5120247;27;20055;-72
2021/12/29 10:58:17;;;;;;;18.00;8.60;;;;;;;;;;5137952;27;20052;-72
2021/12/29 11:00:49;;;;;;;16.88;8.77;;;;;;;;;;5136735;27;20048;-71
2021/12/29 11:03:16;;;;;;;16.27;8.95;;;;;;;;;;5136749;27;20056;-70
2021/12/29 11:05:47;;;;;;;18.17;9.00;;;;;;;;;;5138060;27;20059;-71
2021/12/29 11:08:14;;;;;;;16.40;9.25;;;;;;;;;;5135280;27;20090;-74
2021/12/29 11:10:40;;;;;;;20.58;9.38;;;;;;;;;;5136682;27;20051;-74
2021/12/29 11:13:12;;;;;;;12.65;7.75;;;;;;;;;;5137185;27;20090;-75
2021/12/29 11:15:41;;;;;;;16.65;8.85;;;;;;;;;;5136677;27;20062;-75
2021/12/29 11:18:10;;;;;;;15.75;8.32;;;;;;;;;;5136934;27;20052;-75
2021/12/29 11:20:36;;;;;;;22.90;8.15;;;;;;;;;;5136805;27;20056;-73
2021/12/29 11:23:08;;;;;;;12.95;7.90;;;;;;;;;;5136339;27;20051;-73
2021/12/29 11:25:35;;;;;;;12.18;7.60;;;;;;;;;;5136508;27;20126;-72
2021/12/29 11:28:02;;;;;;;16.13;7.80;;;;;;;;;;5136931;27;20067;-72
2021/12/29 11:30:28;;;;;;;14.75;8.48;;;;;;;;;;5136786;27;20403;-73
2021/12/29 11:33:07;;;;;;;14.80;8.77;;;;;;;;;;5136044;27;20055;-72
2021/12/29 11:35:37;;;;;;;14.30;8.70;;;;;;;;;;5135340;27;20082;-73
2021/12/29 11:38:04;;;;;;;11.38;7.82;;;;;;;;;;5136540;27;20104;-74
2021/12/29 11:40:32;;;;;;;16.27;10.05;;;;;;;;;;5140375;27;20051;-73
2021/12/29 11:42:59;;;;;;;14.95;8.93;;;;;;;;;;5144993;27;20044;-73
2021/12/29 11:45:25;;;;;;;16.30;9.93;;;;;;;;;;5137533;27;20553;-77
2021/12/29 11:47:52;;;;;;;16.83;9.27;;;;;;;;;;5156493;27;20054;-74
2021/12/29 11:50:20;;;;;;;14.27;8.95;;;;;;;;;;5143690;27;20142;-75
2021/12/29 11:52:53;;;;;;;18.05;9.73;;;;;;;;;;5136166;27;20056;-76
2021/12/29 11:55:20;;;;;;;18.92;10.32;;;;;;;;;;5135490;27;20047;-77
2021/12/29 11:57:46;;;;;;;17.33;10.68;;;;;;;;;;5136162;27;20055;-76
2021/12/29 12:00:17;;;;;;;15.68;9.70;;;;;;;;;;5136326;27;20063;-75
2021/12/29 12:02:45;;;;;;;18.90;11.13;;;;;;;;;;5135243;27;20496;-75
2021/12/29 12:05:17;;;;;;;11.93;9.88;;;;;;;;;;5140516;27;20559;-75
2021/12/29 12:07:44;;;;;;;16.20;10.18;;;;;;;;;;5139915;27;20707;-76
2021/12/29 12:10:12;;;;;;;13.30;9.77;;;;;;;;;;5141470;27;20058;-75
2021/12/29 12:12:41;;;;;;;13.48;11.35;;;;;;;;;;5139579;27;20048;-75
2021/12/29 12:15:08;;;;;;;19.63;11.35;;;;;;;;;;5140064;27;20131;-75
2021/12/29 12:17:35;;;;;;;19.40;11.70;;;;;;;;;;5140228;27;20588;-75
2021/12/29 12:20:12;;;;;;;17.00;11.60;;;;;;;;;;5154868;27;20062;-72
2021/12/29 12:22:46;;;;;;;19.40;11.57;;;;;;;;;;5125018;27;20060;-74
2021/12/29 12:25:13;;;;;;;17.48;11.23;;;;;;;;;;5140014;27;20058;-74
2021/12/29 12:27:41;;;;;;;17.13;11.30;;;;;;;;;;5149309;27;20131;-74
2021/12/29 12:30:12;;;;;;;19.33;11.50;;;;;;;;;;5153645;27;20505;-73
2021/12/29 12:32:43;;;;;;;18.10;10.85;;;;;;;;;;5117296;27;20052;-74
2021/12/29 12:35:10;;;;;;;21.27;11.15;;;;;;;;;;5136693;27;20051;-74
2021/12/29 12:37:41;;;;;;;16.58;11.57;;;;;;;;;;5139409;27;20070;-74
2021/12/29 12:40:13;;;;;;;15.70;10.35;;;;;;;;;;5135409;27;20051;-74
2021/12/29 12:42:41;;;;;;;15.85;11.27;;;;;;;;;;5135252;27;20052;-74
2021/12/29 12:45:18;;;;;;;16.90;11.35;;;;;;;;;;5135275;27;20051;-75
2021/12/29 12:47:45;;;;;;;19.30;12.05;;;;;;;;;;5144326;27;20059;-76
2021/12/29 12:50:21;;;;;;;14.65;11.07;;;;;;;;;;5137655;27;20055;-75
2021/12/29 12:52:50;;;;;;;15.40;11.80;;;;;;;;;;5136058;27;20048;-74
2021/12/29 12:55:17;;;;;;;23.17;12.02;;;;;;;;;;5143216;27;20044;-75
2021/12/29 12:57:44;;;;;;;17.27;10.63;;;;;;;;;;5134131;27;20147;-75
2021/12/29 13:00:16;;;;;;;16.05;11.00;;;;;;;;;;5135115;27;20051;-74
2021/12/29 13:03:02;;;;;;;15.32;9.93;;;;;;;;;;5136418;27;20549;-73
2021/12/29 13:05:30;;;;;;;17.45;9.95;;;;;;;;;;5131991;27;20044;-61
2021/12/29 13:08:09;;;;;;;14.35;9.43;;;;;;;;;;5133255;27;20498;-73
2021/12/29 13:10:37;;;;;;;18.65;9.32;;;;;;;;;;5129366;27;20059;-75
2021/12/29 13:13:10;;;;;;;14.07;9.25;;;;;;;;;;5113059;27;20531;-74
2021/12/29 13:15:37;;;;;;;16.25;9.95;;;;;;;;;;5135030;27;20048;-74
2021/12/29 13:18:04;;;;;;;12.52;8.40;;;;;;;;;;5133948;27;20054;-74
2021/12/29 13:20:30;;;;;;;14.95;9.23;;;;;;;;;;5135180;27;20525;-75
2021/12/29 13:22:56;;;;;;;14.82;9.07;;;;;;;;;;5155535;27;20514;-75
2021/12/29 13:25:26;;;;;;;13.40;8.55;;;;;;;;;;5138212;27;20052;-75
2021/12/29 13:28:01;;;;;;;15.18;8.48;;;;;;;;;;5137408;27;20054;-72
2021/12/29 13:30:35;;;;;;;13.77;9.30;;;;;;;;;;5135002;27;20134;-74
2021/12/29 13:33:01;;;;;;;16.73;9.23;;;;;;;;;;5134297;27;20055;-71
2021/12/29 13:35:36;;;;;;;17.42;9.57;;;;;;;;;;5133282;27;20491;-72
2021/12/29 13:38:07;;;;;;;15.95;9.18;;;;;;;;;;5133194;27;20491;-73
2021/12/29 13:40:39;;;;;;;14.88;8.93;;;;;;;;;;5135003;27;20427;-73
2021/12/29 13:43:10;;;;;;;15.13;9.10;;;;;;;;;;5134815;27;20055;-72
2021/12/29 13:45:36;;;;;;;16.50;9.40;;;;;;;;;;5134543;27;20083;-71
2021/12/29 13:48:03;;;;;;;17.05;9.70;;;;;;;;;;5134675;27;20511;-71
2021/12/29 13:50:30;;;;;;;19.38;10.20;;;;;;;;;;5149087;27;20065;-72
2021/12/29 13:52:58;;;;;;;16.40;9.02;;;;;;;;;;5135031;27;20051;-73
2021/12/29 13:55:28;;;;;;;17.10;10.38;;;;;;;;;;5142711;27;20080;-72
2021/12/29 13:57:55;;;;;;;16.38;9.60;;;;;;;;;;5141481;27;20047;-71
2021/12/29 14:00:22;;;;;;;14.70;9.25;;;;;;;;;;5138676;27;20073;-72
2021/12/29 14:02:48;;;;;;;13.95;8.93;;;;;;;;;;5138513;27;20149;-71
2021/12/29 14:05:15;;;;;;;19.98;10.05;;;;;;;;;;5145757;27;20132;-71
2021/12/29 14:07:41;;;;;;;18.15;9.43;;;;;;;;;;5135707;27;20051;-71
2021/12/29 14:10:08;;;;;;;17.45;10.20;;;;;;;;;;5133356;27;20430;-71
2021/12/29 14:12:36;;;;;;;18.65;9.95;;;;;;;;;;5133623;27;20488;-70
2021/12/29 14:15:04;;;;;;;17.40;10.05;;;;;;;;;;5132348;27;20058;-71
2021/12/29 14:17:36;;;;;;;16.80;9.98;;;;;;;;;;5135312;27;20052;-70
2021/12/29 14:20:04;;;;;;;13.40;9.10;;;;;;;;;;5139187;27;20056;-70
2021/12/29 14:22:31;;;;;;;17.70;9.13;;;;;;;;;;5132509;27;20044;-72
2021/12/29 14:25:05;;;;;;;17.38;9.45;;;;;;;;;;5137127;27;20057;-77
2021/12/29 14:27:34;;;;;;;15.30;9.23;;;;;;;;;;5148146;27;20466;-75
2021/12/29 14:30:13;;;;;;;19.60;9.10;;;;;;;;;;5134443;27;20437;-75
2021/12/29 14:32:54;;;;;;;16.30;9.90;;;;;;;;;;5133816;27;20054;-74
2021/12/29 14:35:22;;;;;;;18.73;8.65;;;;;;;;;;5133244;27;20537;-75